createdAt,value
2022-10-08T04:32:44.317Z,26.38
2022-10-08T04:35:11.257Z,28.05
2022-10-08T04:37:38.025Z,27.83
2022-10-08T04:40:05.019Z,29.35
2022-10-08T04:42:34.854Z,27.75
2022-10-08T04:45:01.523Z,28.30
2022-10-08T04:47:28.181Z,29.30
2022-10-08T04:49:54.864Z,27.58
2022-10-08T04:52:21.531Z,30.13
2022-10-08T04:54:48.702Z,26.98
2022-10-08T04:57:15.535Z,30.52
2022-10-08T04:59:59.694Z,28.67
2022-10-08T05:02:29.225Z,29.88
2022-10-08T05:04:55.969Z,28.05
2022-10-08T05:07:22.775Z,28.45
2022-10-08T05:09:49.495Z,28.48
2022-10-08T05:12:16.589Z,29.83
2022-10-08T05:14:43.319Z,28.15
2022-10-08T05:17:09.989Z,29.70
2022-10-08T05:19:36.733Z,29.88
2022-10-08T05:22:03.490Z,27.88
2022-10-08T05:24:30.212Z,31.88
2022-10-08T05:26:58.816Z,30.55
2022-10-08T05:29:26.404Z,31.58
2022-10-08T05:31:53.211Z,30.50
2022-10-08T05:34:20.029Z,31.30
2022-10-08T05:36:46.722Z,29.83
2022-10-08T05:39:13.682Z,32.00
2022-10-08T05:41:41.227Z,29.35
2022-10-08T05:44:09.984Z,29.63
2022-10-08T05:46:38.124Z,30.20
2022-10-08T05:49:07.886Z,31.15
2022-10-08T05:51:35.266Z,30.58
2022-10-08T05:54:02.110Z,31.63
2022-10-08T05:56:29.292Z,29.63
2022-10-08T05:58:56.071Z,30.38
2022-10-08T06:01:31.488Z,31.38
2022-10-08T06:04:08.676Z,32.40
2022-10-08T06:06:37.293Z,39.13
2022-10-08T06:09:04.681Z,36.17
2022-10-08T06:11:34.074Z,31.08
2022-10-08T06:14:02.029Z,34.78
2022-10-08T06:16:30.021Z,31.45
2022-10-08T06:18:57.279Z,31.88
2022-10-08T06:21:26.535Z,32.40
2022-10-08T06:23:55.479Z,33.97
2022-10-08T06:26:27.306Z,32.63
2022-10-08T06:28:55.387Z,35.10
2022-10-08T06:31:22.372Z,33.63
2022-10-08T06:33:49.138Z,34.25
2022-10-08T06:36:18.904Z,31.58
2022-10-08T06:38:56.936Z,31.27
2022-10-08T06:41:23.968Z,30.52
2022-10-08T06:43:50.856Z,34.35
2022-10-08T06:46:18.991Z,35.17
2022-10-08T06:48:46.527Z,33.92
2022-10-08T06:51:16.946Z,32.13
2022-10-08T06:53:44.928Z,31.23
2022-10-08T06:56:18.092Z,32.10
2022-10-08T06:58:46.031Z,33.85
2022-10-08T07:01:15.893Z,33.13
2022-10-08T07:03:42.968Z,33.15
2022-10-08T07:06:13.007Z,31.42
2022-10-08T07:08:40.084Z,31.67
2022-10-08T07:11:15.885Z,33.35
2022-10-08T07:13:43.087Z,33.38
2022-10-08T07:16:20.320Z,31.33
2022-10-08T07:18:49.396Z,32.42
2022-10-08T07:21:17.643Z,32.53
2022-10-08T07:23:44.887Z,30.70
2022-10-08T07:26:17.374Z,29.55
2022-10-08T07:28:56.036Z,30.25
2022-10-08T07:31:30.091Z,29.05
2022-10-08T07:33:58.239Z,30.60
2022-10-08T07:36:26.670Z,29.27
2022-10-08T07:38:58.808Z,32.33
2022-10-08T07:41:26.568Z,28.30
2022-10-08T07:43:56.288Z,28.33
2022-10-08T07:46:23.031Z,27.92
2022-10-08T07:48:50.886Z,28.15
2022-10-08T07:51:19.665Z,27.38
2022-10-08T07:53:46.552Z,28.35
2022-10-08T07:56:15.118Z,26.77
2022-10-08T07:58:42.676Z,28.25
2022-10-08T08:01:12.259Z,27.05
2022-10-08T08:03:39.084Z,26.33
2022-10-08T08:06:14.695Z,27.75
2022-10-08T08:08:44.071Z,29.00
2022-10-08T08:11:13.904Z,28.40
2022-10-08T08:13:41.984Z,28.58
2022-10-08T08:16:12.217Z,28.75
2022-10-08T08:18:41.440Z,28.92
2022-10-08T08:21:11.949Z,27.92
2022-10-08T08:23:44.307Z,25.20
2022-10-08T08:26:14.920Z,29.40
2022-10-08T08:28:41.677Z,28.90
2022-10-08T08:31:14.234Z,27.02
2022-10-08T08:33:42.436Z,29.30
2022-10-08T08:36:09.969Z,28.35
2022-10-08T08:38:37.868Z,28.85
2022-10-08T08:41:23.455Z,27.60
2022-10-08T08:44:01.417Z,27.58
2022-10-08T08:46:32.853Z,26.92
2022-10-08T08:49:07.035Z,27.73
2022-10-08T08:51:34.624Z,26.58
2022-10-08T08:54:01.485Z,25.63
2022-10-08T08:56:29.856Z,26.67
2022-10-08T08:59:24.691Z,27.40
2022-10-08T09:01:55.215Z,27.42
2022-10-08T09:04:45.681Z,25.48
2022-10-08T09:07:17.228Z,25.23
2022-10-08T09:09:50.436Z,26.13
2022-10-08T09:12:21.599Z,27.13
2022-10-08T09:14:53.957Z,25.95
2022-10-08T09:17:37.148Z,28.83
2022-10-08T09:20:04.288Z,28.92
2022-10-08T09:22:40.617Z,26.45
2022-10-08T09:25:11.075Z,29.77
2022-10-08T09:28:00.969Z,33.50
2022-10-08T09:30:29.517Z,32.40
2022-10-08T09:33:07.942Z,32.00
2022-10-08T09:35:41.157Z,27.85
2022-10-08T09:38:24.172Z,28.27
2022-10-08T09:41:10.788Z,26.33
2022-10-08T09:43:37.555Z,22.98
2022-10-08T09:46:27.039Z,25.63
2022-10-08T09:48:53.819Z,25.10
2022-10-08T09:51:20.632Z,25.35
2022-10-08T09:53:52.312Z,25.25
2022-10-08T09:56:27.957Z,24.67
2022-10-08T09:58:58.896Z,24.58
2022-10-08T10:01:26.052Z,24.45
2022-10-08T10:04:01.069Z,23.52
2022-10-08T10:06:34.106Z,23.38
2022-10-08T10:09:03.009Z,23.15
2022-10-08T10:11:35.350Z,23.70
2022-10-08T10:14:27.945Z,22.83
2022-10-08T10:17:31.071Z,23.33
2022-10-08T10:20:05.037Z,24.20
2022-10-08T10:22:52.662Z,22.60
2022-10-08T10:25:37.688Z,23.25
2022-10-08T10:28:39.595Z,25.17
2022-10-08T10:31:16.381Z,21.58
2022-10-08T10:33:57.558Z,23.25
2022-10-08T10:36:29.765Z,22.67
2022-10-08T10:39:03.613Z,22.35
2022-10-08T10:41:32.962Z,22.77
2022-10-08T10:44:06.028Z,22.40
2022-10-08T10:46:49.530Z,21.63
2022-10-08T10:49:26.998Z,22.83
2022-10-08T10:52:05.930Z,22.05
2022-10-08T10:54:51.235Z,22.02
2022-10-08T10:57:45.563Z,20.88
2022-10-08T11:00:26.322Z,21.30
2022-10-08T11:03:02.767Z,21.15
2022-10-08T11:05:33.062Z,22.40
2022-10-08T11:08:08.249Z,21.27
2022-10-08T11:10:57.098Z,19.45
2022-10-08T11:13:35.709Z,20.75
2022-10-08T11:16:16.756Z,19.65
2022-10-08T11:18:47.382Z,20.13
2022-10-08T11:21:33.327Z,19.52
2022-10-08T11:24:28.397Z,19.45
2022-10-08T11:27:02.603Z,19.10
2022-10-08T11:29:45.521Z,20.23
2022-10-08T11:32:15.230Z,18.83
2022-10-08T11:35:00.505Z,18.08
2022-10-08T11:37:52.818Z,21.52
2022-10-08T11:40:26.972Z,20.13
2022-10-08T11:43:23.907Z,19.65
2022-10-08T11:46:20.737Z,18.55
2022-10-08T11:48:48.780Z,19.60
2022-10-08T11:51:21.861Z,20.13
2022-10-08T11:54:06.053Z,22.60
2022-10-08T11:56:35.164Z,22.38
2022-10-08T11:59:30.550Z,22.13
2022-10-08T12:02:25.024Z,21.50
2022-10-08T12:04:53.722Z,21.48
2022-10-08T12:07:34.294Z,20.55
2022-10-08T12:10:06.997Z,20.45
2022-10-08T12:12:49.397Z,21.67
2022-10-08T12:15:27.616Z,18.88
2022-10-08T12:18:17.360Z,22.00
2022-10-08T12:20:44.709Z,21.38
2022-10-08T12:23:35.662Z,20.08
2022-10-08T12:26:08.871Z,21.08
2022-10-08T12:28:35.580Z,21.02
2022-10-08T12:31:40.090Z,20.27
2022-10-08T12:34:22.746Z,19.60
2022-10-08T12:37:15.736Z,19.58
2022-10-08T12:39:45.746Z,19.13
2022-10-08T12:42:27.702Z,20.95
2022-10-08T12:45:12.865Z,20.08
2022-10-08T12:47:50.261Z,19.90
2022-10-08T12:50:22.986Z,18.27
2022-10-08T12:52:49.783Z,15.10
2022-10-08T12:55:20.390Z,13.23
2022-10-08T12:57:50.390Z,13.68
2022-10-08T13:00:32.899Z,12.20
2022-10-08T13:03:12.496Z,9.27
2022-10-08T13:05:41.016Z,7.60
2022-10-08T13:08:37.149Z,8.88
2022-10-08T13:11:09.351Z,8.02
2022-10-08T13:13:38.833Z,7.55
2022-10-08T13:16:10.681Z,7.03
2022-10-08T13:18:39.316Z,7.85
2022-10-08T13:21:23.009Z,7.90
2022-10-08T13:26:40.795Z,7.60
2022-10-08T13:29:26.617Z,10.32
2022-10-08T13:31:57.589Z,11.30
2022-10-08T13:34:32.401Z,11.50
2022-10-08T13:37:02.222Z,10.45
2022-10-08T13:39:49.330Z,11.32
2022-10-08T13:42:18.925Z,10.88
2022-10-08T13:44:45.891Z,11.68
2022-10-08T13:47:14.780Z,10.18
2022-10-08T13:49:41.830Z,10.13
2022-10-08T13:52:28.205Z,10.25
2022-10-08T13:54:59.842Z,9.35
2022-10-08T13:57:26.549Z,9.45
2022-10-08T13:59:53.273Z,9.15
2022-10-08T14:02:20.098Z,8.48
2022-10-08T14:04:47.245Z,7.72
2022-10-08T14:07:35.218Z,7.97
2022-10-08T14:10:02.101Z,9.05
2022-10-08T14:12:32.637Z,10.00
2022-10-08T14:15:00.116Z,8.40
2022-10-08T14:17:27.079Z,8.45
2022-10-08T14:19:56.728Z,7.75
2022-10-08T14:22:23.943Z,6.40
2022-10-08T14:24:51.265Z,5.78
2022-10-08T14:27:17.937Z,4.85
2022-10-08T14:29:44.603Z,3.05
2022-10-08T14:32:11.953Z,3.08
2022-10-08T14:34:39.271Z,2.50
2022-10-08T14:37:06.750Z,2.20
2022-10-08T14:39:33.441Z,2.70
2022-10-08T14:42:00.174Z,4.85
2022-10-08T14:44:26.907Z,4.32
2022-10-08T14:46:53.598Z,2.78
2022-10-08T14:49:21.209Z,2.35
2022-10-08T14:51:48.380Z,2.80
2022-10-08T14:54:15.494Z,3.05
2022-10-08T14:56:43.122Z,2.40
2022-10-08T14:59:10.866Z,2.10
2022-10-08T15:01:37.662Z,1.98
2022-10-08T15:04:05.561Z,2.38
2022-10-08T15:06:33.087Z,1.80
2022-10-08T15:09:00.015Z,1.73
2022-10-08T15:11:26.732Z,1.88
2022-10-08T15:13:53.899Z,1.92
2022-10-08T15:16:20.620Z,2.15
2022-10-08T15:18:48.326Z,2.38
2022-10-08T15:21:15.073Z,2.47
2022-10-08T15:23:41.814Z,2.00
2022-10-08T15:26:14.573Z,2.15
2022-10-08T15:28:42.867Z,2.15
2022-10-08T15:31:14.683Z,2.33
2022-10-08T15:33:43.446Z,2.05
2022-10-08T15:36:27.071Z,2.10
2022-10-08T15:39:03.341Z,2.45
2022-10-08T15:41:34.277Z,3.20
2022-10-08T15:44:13.843Z,3.10
2022-10-08T15:46:40.488Z,2.53
2022-10-08T15:49:07.278Z,2.22
2022-10-08T15:51:34.398Z,1.75
2022-10-08T15:54:02.267Z,2.00
2022-10-08T15:56:29.005Z,1.70
2022-10-08T15:58:57.948Z,1.90
2022-10-08T16:01:25.414Z,1.60
2022-10-08T16:03:54.078Z,1.88
2022-10-08T16:06:31.817Z,1.90
2022-10-08T16:08:58.782Z,2.05
2022-10-08T16:11:33.348Z,1.45
2022-10-08T16:14:06.974Z,1.70
2022-10-08T16:16:34.028Z,1.40
2022-10-08T16:19:03.118Z,1.73
2022-10-08T16:21:31.865Z,1.88
2022-10-08T16:23:59.156Z,2.33
2022-10-08T16:26:26.441Z,2.42
2022-10-08T16:28:55.281Z,1.90
2022-10-08T16:31:23.174Z,2.20
2022-10-08T16:33:58.314Z,3.05
2022-10-08T16:36:26.337Z,1.90
2022-10-08T16:38:53.385Z,2.17
2022-10-08T16:41:25.714Z,2.30
2022-10-08T16:43:54.187Z,2.03
2022-10-08T16:46:22.385Z,2.28
2022-10-08T16:48:53.689Z,1.75
2022-10-08T16:51:21.824Z,2.00
2022-10-08T16:53:53.682Z,1.67
2022-10-08T16:56:25.334Z,1.83
2022-10-08T16:58:57.123Z,1.42
2022-10-08T17:01:24.480Z,1.80
2022-10-08T17:03:51.568Z,1.40
2022-10-08T17:06:20.470Z,1.80
2022-10-08T17:08:48.707Z,1.60
2022-10-08T17:11:15.947Z,1.60
2022-10-08T17:13:48.362Z,1.95
2022-10-08T17:16:16.423Z,2.80
2022-10-08T17:18:44.280Z,1.65
2022-10-08T17:21:12.934Z,2.40
2022-10-08T17:23:39.923Z,3.97
2022-10-08T17:26:15.085Z,2.08
2022-10-08T17:28:44.657Z,2.70
2022-10-08T17:31:14.327Z,2.10
2022-10-08T17:33:41.825Z,1.92
2022-10-08T17:36:18.320Z,2.22
2022-10-08T17:38:46.590Z,1.65
2022-10-08T17:41:31.733Z,1.67
2022-10-08T17:44:01.465Z,1.95
2022-10-08T17:46:37.504Z,2.58
2022-10-08T17:49:04.502Z,1.80
2022-10-08T17:51:32.153Z,2.00
2022-10-08T17:54:01.474Z,1.88
2022-10-08T17:56:28.610Z,1.80
2022-10-08T17:58:55.809Z,2.70
2022-10-08T18:01:25.390Z,2.15
2022-10-08T18:03:57.924Z,1.77
2022-10-08T18:06:25.701Z,1.75
2022-10-08T18:09:00.715Z,1.70
2022-10-08T18:11:29.381Z,1.95
2022-10-08T18:13:56.077Z,1.63
2022-10-08T18:16:23.389Z,1.67
2022-10-08T18:18:50.041Z,1.42
2022-10-08T18:21:18.280Z,2.20
2022-10-08T18:23:46.610Z,2.72
2022-10-08T18:26:16.265Z,2.08
2022-10-08T18:28:43.050Z,1.70
2022-10-08T18:31:11.523Z,2.10
2022-10-08T18:33:39.889Z,1.70
2022-10-08T18:36:18.585Z,3.60
2022-10-08T18:38:47.280Z,1.90
2022-10-08T18:41:15.361Z,2.45
2022-10-08T18:43:42.751Z,2.83
2022-10-08T18:46:09.968Z,2.75
2022-10-08T18:48:37.402Z,2.53
2022-10-08T18:51:06.015Z,2.85
2022-10-08T18:53:38.600Z,3.10
2022-10-08T18:56:08.019Z,3.33
2022-10-08T18:58:35.046Z,3.08
2022-10-08T19:01:02.062Z,3.33
2022-10-08T19:03:28.726Z,3.40
2022-10-08T19:05:55.585Z,4.70
2022-10-08T19:08:22.327Z,3.72
2022-10-08T19:10:49.372Z,3.42
2022-10-08T19:13:16.041Z,4.68
2022-10-08T19:15:42.774Z,4.78
2022-10-08T19:18:09.482Z,4.45
2022-10-08T19:20:36.571Z,4.13
2022-10-08T19:23:03.394Z,3.88
2022-10-08T19:25:30.054Z,5.05
2022-10-08T19:27:57.075Z,5.35
2022-10-08T19:30:26.567Z,5.60
2022-10-08T19:32:55.141Z,4.85
2022-10-08T19:35:21.787Z,3.30
2022-10-08T19:37:48.435Z,3.30
2022-10-08T19:40:15.091Z,7.70
2022-10-08T19:42:41.740Z,5.00
2022-10-08T19:45:08.797Z,4.00
2022-10-08T19:47:35.910Z,4.95
2022-10-08T19:50:03.082Z,1.88
2022-10-08T19:52:30.045Z,14.63
2022-10-08T19:54:56.767Z,20.08
2022-10-08T19:57:23.527Z,20.60
2022-10-08T19:59:50.238Z,11.68
2022-10-08T20:02:16.953Z,1.98
2022-10-08T20:04:44.827Z,3.72
2022-10-08T20:07:11.506Z,2.38
2022-10-08T20:09:38.181Z,4.72
2022-10-08T20:12:05.044Z,3.80
2022-10-08T20:14:31.920Z,3.97
2022-10-08T20:16:58.604Z,2.30
2022-10-08T20:19:25.325Z,2.80
2022-10-08T20:21:55.581Z,3.08
2022-10-08T20:24:22.280Z,3.47
2022-10-08T20:26:49.834Z,4.60
2022-10-08T20:29:19.380Z,14.35
2022-10-08T20:31:49.489Z,5.05
2022-10-08T20:34:23.694Z,4.88
2022-10-08T20:36:51.257Z,3.97
2022-10-08T20:39:20.286Z,8.10
2022-10-08T20:41:47.273Z,4.82
2022-10-08T20:44:14.701Z,3.58
2022-10-08T20:46:41.531Z,4.30
2022-10-08T20:49:10.173Z,1.88
2022-10-08T20:51:39.186Z,2.13
2022-10-08T20:54:08.036Z,2.85
2022-10-08T20:56:39.827Z,2.97
2022-10-08T20:59:08.593Z,2.58
2022-10-08T21:01:38.218Z,1.67
2022-10-08T21:04:06.383Z,1.83
2022-10-08T21:06:42.227Z,2.30
2022-10-08T21:09:09.658Z,1.50
2022-10-08T21:11:37.423Z,2.20
2022-10-08T21:14:05.470Z,2.30
2022-10-08T21:16:34.703Z,3.75
2022-10-08T21:19:04.167Z,1.38
2022-10-08T21:21:34.394Z,1.63
2022-10-08T21:24:01.370Z,1.20
2022-10-08T21:26:30.006Z,1.25
2022-10-08T21:28:59.154Z,1.40
2022-10-08T21:31:27.934Z,1.30
2022-10-08T21:33:55.223Z,1.27
2022-10-08T21:36:28.961Z,1.40
2022-10-08T21:38:56.309Z,1.45
2022-10-08T21:41:24.948Z,1.67
2022-10-08T21:43:54.728Z,1.23
2022-10-08T21:46:23.634Z,1.20
2022-10-08T21:49:14.102Z,1.33
2022-10-08T21:51:41.113Z,1.30
2022-10-08T21:54:08.301Z,1.65
2022-10-08T21:56:37.598Z,1.30
2022-10-08T21:59:06.505Z,1.73
2022-10-08T22:01:39.843Z,1.80
2022-10-08T22:04:12.002Z,2.47
2022-10-08T22:06:44.545Z,3.30
2022-10-08T22:09:17.678Z,2.90
2022-10-08T22:11:44.916Z,3.58
2022-10-08T22:14:11.669Z,3.20
2022-10-08T22:16:38.434Z,3.90
2022-10-08T22:19:05.828Z,4.25
2022-10-08T22:21:32.997Z,4.55
2022-10-08T22:24:00.219Z,4.55
2022-10-08T22:26:30.827Z,4.10
2022-10-08T22:28:57.933Z,3.53
2022-10-08T22:31:24.821Z,3.28
2022-10-08T22:33:51.653Z,3.75
2022-10-08T22:36:30.197Z,3.10
2022-10-08T22:38:58.655Z,2.55
2022-10-08T22:41:30.405Z,2.70
2022-10-08T22:43:57.944Z,2.10
2022-10-08T22:46:27.757Z,2.33
2022-10-08T22:49:05.376Z,3.00
2022-10-08T22:51:32.290Z,3.25
2022-10-08T22:53:59.354Z,3.08
2022-10-08T22:56:30.937Z,2.40
2022-10-08T22:59:00.971Z,2.90
2022-10-08T23:01:28.899Z,2.50
2022-10-08T23:03:55.835Z,3.28
2022-10-08T23:06:28.674Z,2.60
2022-10-08T23:09:00.705Z,2.80
2022-10-08T23:11:28.162Z,2.72
2022-10-08T23:13:56.487Z,2.53
2022-10-08T23:16:25.555Z,2.88
2022-10-08T23:18:55.545Z,2.58
2022-10-08T23:21:22.853Z,2.50
2022-10-08T23:23:50.474Z,2.08
2022-10-08T23:26:17.729Z,2.80
2022-10-08T23:28:48.969Z,2.63
